Terminal Aerodrome Forecast
Issued by NWS Milwaukee/Sullivan, WI

Home | Current Version | Previous Version | Text Only | Print | Product List | Glossary On
Versions: 1 2 3 4 5 6 7 8 9 10 11 12 13 14 15 16 17 18 19 20 21 22 23 24 25 26 27 28 29 30 31 32 33 34 35 36 37 38 39 40 41 42 43 44 45 46 47 48 49 50
000
FTUS43 KMKX 011724
TAFMSN
TAF
KMSN 011724Z 0118/0218 02008KT P6SM VCSH OVC012
     FM020300 02003KT 4SM BR OVC007
     FM020900 34002KT 3SM BR OVC004 PROB30 0212/0215 2SM -DZ OVC002
     FM021500 36005KT P6SM OVC008=

USA.gov is the U.S. government's official web portal to all federal, state and local government web resources and services.